Impacts METAR Board
IDs:

KSFO - San Francisco Intl, CA, US

Updated at: 2300 UTC 01 Feb 2023
Potential Impact None Slight Moderate High
Time 01/11Z 01/12Z 01/13Z 01/14Z 01/15Z 01/16Z 01/17Z 01/18Z 01/19Z 01/20Z 01/21Z 01/22Z 01/23Z
Temp42 40 40 42 42 42 46 49 50 52 54 55 56
Dewpt29 30 32 35 35 38 37 35 37 36 40 41 43
Altim30.19 30.18 30.18 30.19 30.20 30.21 30.22 30.23 30.22 30.21 30.19 30.18 30.18
VIS10 10 10 10 10 10 10 10 10 10 10 10 10
CIG-- -- -- -- -- 180 180 180 180 200 200 200 200
CoverCLRCLRCLRFEWSCTBKNBKNBKNBKNBKNBKNBKNBKN
FltCatVFRVFRVFRVFRVFRVFRVFRVFRVFRVFRVFRVFRVFR
WX--------------------------
WDir00021001900802020202030
WSpd0 0 0 4 0 4 0 3 5 5 6 6 3
WGst-- -- -- -- -- -- -- -- -- -- -- -- --
Raw hourly METARs
KSFO 011056Z 00000KT 10SM CLR 06/M02 A3019 RMK AO2 SLP221 T00561017
KSFO 011156Z 00000KT 10SM CLR 04/M01 A3018 RMK AO2 SLP220 T00441011 10089 20044 58001
KSFO 011256Z 00000KT 10SM CLR 04/00 A3018 RMK AO2 SLP220 T00440000
KSFO 011356Z 21004KT 10SM FEW150 06/02 A3019 RMK AO2 SLP223 T00560017
KSFO 011456Z 00000KT 10SM SCT180 06/02 A3020 RMK AO2 SLP227 T00560017 53007
KSFO 011556Z 19004KT 10SM BKN180 06/03 A3021 RMK AO2 SLP230 T00560033
KSFO 011656Z 00000KT 10SM BKN180 08/03 A3022 RMK AO2 SLP233 T00780028
KSFO 011756Z 08003KT 10SM BKN180 09/02 A3023 RMK AO2 SLP235 T00940017 10094 20039 51008
KSFO 011856Z 02005KT 10SM BKN180 10/03 A3022 RMK AO2 SLP234 T01000028
KSFO 011956Z 02005KT 10SM BKN200 11/02 A3021 RMK AO2 SLP231 T01110022
KSFO 012056Z 02006KT 10SM BKN200 12/04 A3019 RMK AO2 SLP224 T01220044 58012
KSFO 012156Z 02006KT 10SM BKN200 13/05 A3018 RMK AO2 SLP220 T01280050
KSFO 012256Z 03003KT 10SM BKN200 13/06 A3018 RMK AO2 SLP219 T01330061



Page loaded:  23:12 UTC  |   03:12 PM Pacific  |   04:12 PM Mountain  |   05:12 PM Central  |   06:12 PM Eastern

 

ADVISORIES

FORECASTS

FORECASTS

OBSERVATIONS

USER TOOLS

ABOUT US